Time;durP1;ratioP1;P1;durP2;ratioP2;P2;SDS_P1;SDS_P2;PMS_P1;PMS_P2;Temp;Humidity;BMP_temperature;BMP_pressure;BME280_temperature;BME280_humidity;BME280_pressure;Samples;Min_cycle;Max_cycle;Signal;HPM_P1;HPM_P2
2022/12/12 09:28:41;;;;;;;22.17;13.05;;;2.60;59.20;;;;;;5079691;28;20032;-73
2022/12/12 09:31:09;;;;;;;22.17;13.35;;;2.60;59.30;;;;;;5057790;28;20037;-74
2022/12/12 09:33:38;;;;;;;25.52;13.55;;;2.50;58.90;;;;;;5062086;28;20032;-74
2022/12/12 09:36:06;;;;;;;23.83;13.43;;;2.60;59.10;;;;;;5065851;28;20032;-74
2022/12/12 09:38:32;;;;;;;21.25;12.98;;;2.60;59.30;;;;;;5043826;28;20033;-74
2022/12/12 09:41:10;;;;;;;22.40;12.95;;;2.70;59.40;;;;;;5073201;28;20103;-75
2022/12/12 09:43:50;;;;;;;22.23;12.27;;;2.70;59.30;;;;;;5061698;28;20682;-75
2022/12/12 09:49:34;;;;;;;23.17;13.18;;;2.70;59.00;;;;;;5053124;22;20050;-73
2022/12/12 09:55:57;;;;;;;22.10;11.73;;;2.80;58.90;;;;;;4949970;29;20186;-75
2022/12/12 09:59:10;;;;;;;21.00;11.98;;;2.90;59.00;;;;;;4951644;29;20029;-70
2022/12/12 10:02:11;;;;;;;27.58;14.60;;;2.90;58.90;;;;;;4936884;28;20467;-70
2022/12/12 10:08:17;;;;;;;24.77;13.80;;;2.90;58.50;;;;;;4936847;28;20709;-72
2022/12/12 10:11:06;;;;;;;27.65;13.77;;;3.00;58.90;;;;;;4936951;29;20055;-70
2022/12/12 10:14:11;;;;;;;25.25;14.07;;;3.10;59.10;;;;;;4953344;29;20227;-70
2022/12/12 10:16:38;;;;;;;23.43;13.37;;;3.20;58.80;;;;;;4915097;29;20050;-70
2022/12/12 10:19:15;;;;;;;24.38;13.15;;;3.20;58.70;;;;;;4915294;29;20051;-71
2022/12/12 10:21:41;;;;;;;23.98;13.90;;;3.30;58.50;;;;;;4915340;29;20036;-72
2022/12/12 10:24:29;;;;;;;26.15;14.00;;;3.40;58.40;;;;;;4996548;23;20053;-91
2022/12/12 10:26:56;;;;;;;23.73;12.90;;;3.40;58.10;;;;;;5032211;28;20025;-92
2022/12/12 10:29:25;;;;;;;22.95;13.30;;;3.40;58.20;;;;;;5019867;28;20045;-95
2022/12/12 10:32:27;;;;;;;24.38;13.05;;;3.50;58.20;;;;;;5033560;28;20081;-93
2022/12/12 10:34:53;;;;;;;27.42;13.05;;;3.50;58.00;;;;;;5022193;28;20029;-92
2022/12/12 10:37:25;;;;;;;25.55;13.65;;;3.60;58.20;;;;;;5036172;28;20025;-94
2022/12/12 10:39:54;;;;;;;40.45;13.52;;;3.60;57.70;;;;;;5036661;28;20026;-92
2022/12/12 10:42:50;;;;;;;25.65;12.52;;;3.70;57.70;;;;;;5033304;28;20022;-91
2022/12/12 10:45:53;;;;;;;24.33;12.80;;;3.80;57.90;;;;;;5017914;28;20058;-93
2022/12/12 10:48:19;;;;;;;25.73;13.20;;;3.90;57.70;;;;;;5015912;28;20032;-91
2022/12/12 10:50:51;;;;;;;28.42;12.85;;;4.10;57.70;;;;;;5017249;28;20030;-90
2022/12/12 10:53:18;;;;;;;23.05;12.50;;;4.20;57.20;;;;;;5016752;28;20022;-89
2022/12/12 10:55:56;;;;;;;22.33;11.68;;;4.30;57.00;;;;;;5015697;28;20038;-89
2022/12/12 10:58:27;;;;;;;20.70;11.98;;;4.50;56.50;;;;;;5014883;28;20040;-90
2022/12/12 11:01:09;;;;;;;24.98;12.60;;;4.60;56.30;;;;;;5018580;28;20018;-90
2022/12/12 11:03:56;;;;;;;22.58;11.93;;;4.70;55.90;;;;;;5025601;28;20029;-90
2022/12/12 11:06:47;;;;;;;20.67;11.88;;;4.80;55.80;;;;;;5015321;28;20469;-93
2022/12/12 11:09:27;;;;;;;20.75;11.88;;;4.90;55.30;;;;;;5015740;28;20026;-93
2022/12/12 11:12:14;;;;;;;20.15;11.20;;;5.00;55.10;;;;;;5016749;28;20053;-92
2022/12/12 11:14:47;;;;;;;20.73;12.07;;;5.10;55.30;;;;;;5015719;28;20100;-94
2022/12/12 11:17:25;;;;;;;25.33;12.13;;;5.10;54.70;;;;;;5018154;28;20049;-93
2022/12/12 11:19:53;;;;;;;25.00;12.18;;;5.10;54.50;;;;;;5021443;28;20109;-94
2022/12/12 11:22:19;;;;;;;23.38;12.02;;;5.10;54.70;;;;;;5019082;28;20026;-94
2022/12/12 11:24:47;;;;;;;20.60;12.13;;;5.10;54.60;;;;;;5011492;28;20045;-94
2022/12/12 11:27:24;;;;;;;27.70;13.10;;;5.10;54.40;;;;;;5008742;28;20034;-95
2022/12/12 11:30:00;;;;;;;18.67;11.10;;;5.10;53.90;;;;;;5020370;28;20045;-94
2022/12/12 11:32:48;;;;;;;22.67;11.35;;;5.00;54.10;;;;;;5022554;28;20045;-94
2022/12/12 11:35:31;;;;;;;19.77;11.60;;;5.00;54.20;;;;;;5023653;28;20029;-94
2022/12/12 11:38:01;;;;;;;27.50;12.57;;;5.00;54.00;;;;;;5021833;28;20037;-93
2022/12/12 11:40:34;;;;;;;19.48;11.73;;;5.00;53.80;;;;;;5039898;28;20013;-94
2022/12/12 11:43:16;;;;;;;21.77;12.02;;;4.90;54.00;;;;;;5020815;28;20034;-93
2022/12/12 11:45:56;;;;;;;21.60;12.48;;;4.80;54.00;;;;;;5024838;28;20036;-93
2022/12/12 11:48:34;;;;;;;23.63;12.10;;;4.80;54.20;;;;;;5010008;28;20088;-94
2022/12/12 11:51:00;;;;;;;34.03;13.77;;;4.70;54.20;;;;;;5021125;28;20069;-93
2022/12/12 11:53:26;;;;;;;29.85;13.40;;;4.70;54.40;;;;;;5020317;28;20533;-93
2022/12/12 11:56:09;;;;;;;24.73;12.63;;;4.60;54.30;;;;;;5008020;28;20033;-92
2022/12/12 11:59:06;;;;;;;22.65;13.05;;;4.60;54.20;;;;;;5001548;28;20030;-93
2022/12/12 12:02:00;;;;;;;31.88;13.27;;;4.50;54.30;;;;;;5006239;28;20068;-93
2022/12/12 12:05:11;;;;;;;23.47;12.07;;;4.50;54.40;;;;;;5002236;28;20018;-93
2022/12/12 12:08:09;;;;;;;22.23;12.25;;;4.40;54.50;;;;;;4999328;28;20277;-93
2022/12/12 12:11:03;;;;;;;22.67;12.18;;;4.50;54.60;;;;;;4999762;28;20034;-92
2022/12/12 12:13:38;;;;;;;22.40;12.32;;;4.50;54.60;;;;;;4999984;28;20026;-94
2022/12/12 12:16:39;;;;;;;22.50;12.00;;;4.50;54.80;;;;;;5018263;28;20026;-93
2022/12/12 12:19:20;;;;;;;24.02;12.68;;;4.50;54.40;;;;;;5002614;28;20440;-93
2022/12/12 12:22:16;;;;;;;20.42;11.90;;;4.50;54.40;;;;;;5023239;28;20029;-93
2022/12/12 12:24:59;;;;;;;23.73;13.02;;;4.50;54.30;;;;;;5019973;28;20389;-92
2022/12/12 12:27:35;;;;;;;24.83;13.27;;;4.50;54.30;;;;;;5009771;28;20026;-93
2022/12/12 12:30:23;;;;;;;19.77;12.05;;;4.60;54.30;;;;;;5004951;28;20504;-93
2022/12/12 12:33:24;;;;;;;21.60;10.52;;;4.60;53.90;;;;;;5004137;28;20097;-92
2022/12/12 12:36:13;;;;;;;21.55;12.07;;;4.60;54.10;;;;;;4974334;28;20030;-92
2022/12/12 12:38:57;;;;;;;23.50;12.02;;;4.60;53.90;;;;;;5016356;28;20133;-91
2022/12/12 12:41:42;;;;;;;18.15;10.88;;;4.50;53.70;;;;;;5020448;28;20125;-91
2022/12/12 12:44:41;;;;;;;18.05;10.27;;;4.60;53.80;;;;;;5026684;28;20073;-92
2022/12/12 12:47:49;;;;;;;18.25;10.25;;;4.50;53.50;;;;;;5009669;28;20473;-94
2022/12/12 12:50:18;;;;;;;18.95;11.05;;;4.50;53.50;;;;;;5020167;28;20057;-89
2022/12/12 12:53:26;;;;;;;22.08;11.73;;;4.40;53.40;;;;;;5006940;28;20030;-92
2022/12/12 12:55:56;;;;;;;18.60;11.50;;;4.30;53.20;;;;;;5005065;28;20021;-92
2022/12/12 12:58:33;;;;;;;20.13;11.75;;;4.30;53.50;;;;;;5043091;28;20124;-93
2022/12/12 13:01:04;;;;;;;19.50;11.40;;;4.20;53.50;;;;;;5043503;28;20136;-91
2022/12/12 13:03:49;;;;;;;19.48;10.95;;;4.20;53.70;;;;;;5042486;28;20010;-92
2022/12/12 13:06:49;;;;;;;22.50;13.02;;;4.20;53.90;;;;;;5040069;28;20033;-93
2022/12/12 13:09:31;;;;;;;21.80;12.27;;;4.20;53.90;;;;;;5022061;28;20044;-92
2022/12/12 13:12:22;;;;;;;19.90;11.73;;;4.10;54.20;;;;;;5024309;28;20065;-93
2022/12/12 13:15:03;;;;;;;23.70;12.35;;;4.10;54.20;;;;;;4994436;28;20036;-93
2022/12/12 13:17:49;;;;;;;19.55;10.57;;;4.10;54.20;;;;;;5021345;28;20033;-94
2022/12/12 13:20:19;;;;;;;19.33;9.60;;;4.10;53.90;;;;;;5019969;28;20484;-93
2022/12/12 13:23:11;;;;;;;17.05;9.52;;;4.10;53.60;;;;;;5021395;28;20083;-93
2022/12/12 13:25:48;;;;;;;18.05;9.70;;;4.00;53.30;;;;;;5009827;28;20026;-94
2022/12/12 13:28:22;;;;;;;15.13;9.10;;;4.00;53.50;;;;;;4997928;28;20040;-93
2022/12/12 13:31:06;;;;;;;14.68;7.95;;;4.00;53.40;;;;;;5001445;28;20038;-92
2022/12/12 13:33:48;;;;;;;14.40;8.20;;;4.00;53.00;;;;;;5017757;28;20488;-93
2022/12/12 13:36:24;;;;;;;15.90;8.80;;;3.90;53.10;;;;;;5013528;28;20025;-93
2022/12/12 13:39:02;;;;;;;17.35;9.65;;;3.90;53.30;;;;;;5003451;28;20045;-94
2022/12/12 13:41:59;;;;;;;14.05;8.88;;;3.90;53.20;;;;;;4999581;28;20530;-93
2022/12/12 13:44:34;;;;;;;16.70;9.30;;;3.90;53.20;;;;;;5000566;28;20048;-93
2022/12/12 13:47:03;;;;;;;18.58;10.02;;;3.90;53.30;;;;;;5002730;28;20025;-94
2022/12/12 13:49:44;;;;;;;21.27;10.95;;;3.80;53.30;;;;;;5002367;28;20033;-93
2022/12/12 13:52:41;;;;;;;21.80;10.57;;;3.80;53.30;;;;;;5001370;28;20088;-93
2022/12/12 13:55:12;;;;;;;21.83;10.70;;;3.70;53.50;;;;;;5000186;28;20443;-93
2022/12/12 13:58:04;;;;;;;18.35;10.48;;;3.70;53.60;;;;;;5004148;28;20049;-93
2022/12/12 14:00:36;;;;;;;20.08;10.55;;;3.70;53.70;;;;;;5005972;28;20037;-93
2022/12/12 14:03:11;;;;;;;22.55;11.48;;;3.60;53.80;;;;;;4986090;28;20022;-93
2022/12/12 14:05:40;;;;;;;21.15;11.15;;;3.50;53.80;;;;;;5002245;28;20097;-92
2022/12/12 14:08:09;;;;;;;20.27;11.48;;;3.50;53.90;;;;;;5004233;28;20022;-93
2022/12/12 14:10:40;;;;;;;19.05;10.98;;;3.40;53.90;;;;;;5003749;28;20038;-94
2022/12/12 14:13:21;;;;;;;19.25;10.70;;;3.40;54.10;;;;;;5014956;28;20018;-92
2022/12/12 14:16:14;;;;;;;23.27;11.15;;;3.30;54.20;;;;;;5045547;28;20044;-91
2022/12/12 14:18:49;;;;;;;19.25;10.70;;;3.20;54.20;;;;;;5017340;28;20484;-91
2022/12/12 14:21:20;;;;;;;18.98;10.20;;;3.20;54.30;;;;;;5027422;28;20037;-93
2022/12/12 14:23:47;;;;;;;19.67;11.05;;;3.10;54.30;;;;;;5026263;28;20491;-91
2022/12/12 14:26:29;;;;;;;18.23;9.95;;;3.10;54.40;;;;;;5023071;28;20379;-92
2022/12/12 14:29:16;;;;;;;19.70;11.60;;;3.00;54.30;;;;;;5020006;28;20502;-92
2022/12/12 14:31:59;;;;;;;17.67;10.35;;;3.00;54.40;;;;;;5019816;28;20013;-96
2022/12/12 14:35:03;;;;;;;28.95;10.82;;;2.90;54.40;;;;;;5004104;28;20117;-96
2022/12/12 14:37:48;;;;;;;20.13;10.10;;;2.90;54.40;;;;;;4950373;29;20043;-96
2022/12/12 14:40:48;;;;;;;19.25;9.90;;;2.80;54.60;;;;;;4946676;29;20035;-95
2022/12/12 14:43:22;;;;;;;18.40;10.13;;;2.80;54.70;;;;;;4949998;28;20035;-95
2022/12/12 14:45:48;;;;;;;;;;;2.80;54.80;;;;;;4951676;29;20674;-92
2022/12/12 14:48:35;;;;;;;19.60;10.05;;;2.70;55.00;;;;;;4963017;29;19910;-93
2022/12/12 14:51:14;;;;;;;18.40;9.85;;;2.70;54.70;;;;;;4942779;29;20061;-93
2022/12/12 14:53:51;;;;;;;15.75;9.20;;;2.60;54.70;;;;;;4942584;29;20093;-93
2022/12/12 14:56:19;;;;;;;19.95;10.20;;;2.50;54.70;;;;;;4948104;29;20027;-91
2022/12/12 14:59:01;;;;;;;22.90;10.63;;;2.50;55.40;;;;;;4957658;29;20411;-93
2022/12/12 15:01:43;;;;;;;19.10;10.52;;;2.40;54.80;;;;;;4942418;29;20054;-93
2022/12/12 15:04:24;;;;;;;21.35;11.38;;;2.40;54.80;;;;;;4958677;29;20038;-91
2022/12/12 15:06:55;;;;;;;17.48;10.13;;;2.40;55.10;;;;;;4942670;29;20033;-94
2022/12/12 15:09:24;;;;;;;19.73;9.98;;;2.40;55.20;;;;;;4943041;29;20053;-92
2022/12/12 15:11:53;;;;;;;18.38;9.73;;;2.30;55.20;;;;;;4959588;28;20486;-93
2022/12/12 15:14:22;;;;;;;18.42;10.00;;;2.30;55.30;;;;;;4981282;28;20034;-93
2022/12/12 15:16:52;;;;;;;16.60;9.80;;;2.30;55.40;;;;;;5000220;28;20468;-93
2022/12/12 15:19:26;;;;;;;20.55;11.13;;;2.20;55.40;;;;;;5006839;28;20026;-93
2022/12/12 15:21:52;;;;;;;;;;;2.20;55.50;;;;;;5001462;28;20022;-94
2022/12/12 15:24:24;;;;;;;20.35;10.32;;;2.10;55.60;;;;;;5010213;28;19917;-89
2022/12/12 15:26:53;;;;;;;19.90;10.05;;;2.10;55.50;;;;;;5035671;28;20120;-91
2022/12/12 15:29:26;;;;;;;19.45;10.80;;;2.10;55.70;;;;;;5035897;28;20030;-93
2022/12/12 15:32:02;;;;;;;19.47;10.50;;;2.00;55.70;;;;;;5040340;28;20440;-92
2022/12/12 15:34:34;;;;;;;21.73;9.98;;;2.00;55.80;;;;;;5040717;28;20142;-93
2022/12/12 15:37:10;;;;;;;18.00;9.98;;;1.90;56.00;;;;;;5040264;28;20112;-92
2022/12/12 15:39:36;;;;;;;25.10;11.00;;;1.90;56.10;;;;;;5039364;28;20025;-93
2022/12/12 15:42:02;;;;;;;27.83;11.00;;;1.80;56.10;;;;;;5040310;28;20022;-94
2022/12/12 15:44:28;;;;;;;24.77;12.95;;;1.80;56.30;;;;;;5041447;28;20091;-92
2022/12/12 15:46:55;;;;;;;20.30;11.70;;;1.80;56.40;;;;;;5038676;28;20055;-91
2022/12/12 15:49:53;;;;;;;20.52;11.27;;;1.70;56.60;;;;;;5037853;28;20559;-92
2022/12/12 15:52:26;;;;;;;24.50;13.43;;;1.70;56.70;;;;;;4948949;29;20035;-92
2022/12/12 15:54:58;;;;;;;28.95;13.30;;;1.70;56.90;;;;;;4962841;29;20142;-93
2022/12/12 15:57:30;;;;;;;22.92;11.43;;;1.60;57.00;;;;;;4948000;29;20027;-93
2022/12/12 16:00:04;;;;;;;25.77;13.07;;;1.60;57.20;;;;;;4949856;29;20050;-94
2022/12/12 16:02:32;;;;;;;23.42;12.13;;;1.50;57.20;;;;;;4951900;29;20035;-95
2022/12/12 16:05:17;;;;;;;21.92;10.75;;;1.50;57.20;;;;;;4953276;29;20486;-93
2022/12/12 16:07:44;;;;;;;24.40;11.98;;;1.50;57.40;;;;;;4952956;29;20487;-93
2022/12/12 16:10:10;;;;;;;33.13;12.55;;;1.50;57.40;;;;;;4950422;29;20586;-93
2022/12/12 16:13:03;;;;;;;27.30;12.98;;;1.40;57.50;;;;;;4965704;28;20050;-93
2022/12/12 16:15:30;;;;;;;22.42;11.60;;;1.40;57.80;;;;;;4963830;29;20035;-93
2022/12/12 16:18:14;;;;;;;29.70;13.18;;;1.40;57.70;;;;;;4962299;28;20050;-92
2022/12/12 16:20:52;;;;;;;26.55;12.45;;;1.30;57.70;;;;;;4962312;29;20039;-92
2022/12/12 16:23:31;;;;;;;27.27;12.45;;;1.30;57.80;;;;;;4946919;29;20527;-94
2022/12/12 16:25:58;;;;;;;24.13;11.60;;;1.30;57.90;;;;;;4943997;29;20027;-94
2022/12/12 16:28:28;;;;;;;25.77;13.40;;;1.30;57.90;;;;;;5031226;28;20034;-94
2022/12/12 16:31:01;;;;;;;31.13;13.85;;;1.30;58.00;;;;;;5054569;28;20076;-94
2022/12/12 16:33:43;;;;;;;31.50;14.10;;;1.20;58.10;;;;;;5059639;28;20037;-93
2022/12/12 16:36:15;;;;;;;23.42;13.45;;;1.20;58.20;;;;;;5049149;23;20049;-69
2022/12/12 16:38:42;;;;;;;21.40;11.43;;;1.20;58.20;;;;;;5035074;28;20544;-66
2022/12/12 16:41:13;;;;;;;25.55;11.55;;;1.20;58.10;;;;;;4997635;28;20673;-68
2022/12/12 16:43:39;;;;;;;30.35;14.85;;;1.20;58.20;;;;;;5015004;28;20022;-66
2022/12/12 16:46:13;;;;;;;36.50;15.05;;;1.20;58.20;;;;;;4984703;28;20080;-68
2022/12/12 16:48:39;;;;;;;23.90;12.30;;;1.20;58.20;;;;;;5004944;28;20018;-68
2022/12/12 16:51:07;;;;;;;26.23;14.02;;;1.20;58.50;;;;;;5006298;28;20041;-67
2022/12/12 16:53:34;;;;;;;23.25;12.15;;;1.20;58.80;;;;;;5002865;28;20025;-67
2022/12/12 16:56:00;;;;;;;26.90;11.75;;;1.20;58.80;;;;;;5009630;28;20037;-67
2022/12/12 16:58:27;;;;;;;24.15;11.98;;;1.20;58.60;;;;;;5005392;28;20026;-68
2022/12/12 17:00:53;;;;;;;25.13;12.70;;;1.20;58.40;;;;;;5004637;28;20023;-67
2022/12/12 17:03:20;;;;;;;22.42;12.07;;;1.10;58.20;;;;;;5002546;28;20023;-68
2022/12/12 17:05:47;;;;;;;28.98;11.57;;;1.10;58.20;;;;;;5005954;28;20049;-68
2022/12/12 17:08:16;;;;;;;24.17;12.30;;;1.00;58.10;;;;;;5004076;28;20434;-67
2022/12/12 17:10:44;;;;;;;29.27;13.70;;;1.00;58.10;;;;;;5002615;28;20038;-68
2022/12/12 17:13:18;;;;;;;29.13;11.82;;;1.00;58.20;;;;;;5004272;28;20018;-67
2022/12/12 17:15:44;;;;;;;;;;;1.00;58.30;;;;;;4984897;28;20022;-68
2022/12/12 17:18:10;;;;;;;21.38;11.45;;;0.90;58.10;;;;;;5002799;28;19906;-67
2022/12/12 17:20:36;;;;;;;26.95;13.75;;;0.90;58.10;;;;;;5003770;28;20102;-67
2022/12/12 17:23:04;;;;;;;23.25;12.32;;;0.90;58.20;;;;;;5004726;28;20558;-67
2022/12/12 17:25:31;;;;;;;24.45;12.77;;;0.80;58.40;;;;;;5006977;28;20040;-67
2022/12/12 17:27:57;;;;;;;25.33;13.27;;;0.80;58.50;;;;;;5001847;28;20468;-67
2022/12/12 17:30:23;;;;;;;25.08;13.18;;;0.80;58.60;;;;;;5001362;28;20033;-67
2022/12/12 17:32:49;;;;;;;26.33;12.68;;;0.80;58.80;;;;;;5004144;28;20022;-67
2022/12/12 17:35:15;;;;;;;23.33;12.88;;;0.70;58.90;;;;;;5002863;28;20038;-67
2022/12/12 17:37:41;;;;;;;25.65;13.23;;;0.70;58.90;;;;;;5002526;28;20018;-67
2022/12/12 17:40:09;;;;;;;26.98;14.25;;;0.70;59.00;;;;;;5003931;28;20040;-67
2022/12/12 17:42:37;;;;;;;26.52;13.75;;;0.70;58.90;;;;;;5002964;28;20387;-67
2022/12/12 17:45:04;;;;;;;21.38;11.70;;;0.70;59.00;;;;;;5002029;28;20021;-67
2022/12/12 17:47:32;;;;;;;25.65;13.20;;;0.60;58.90;;;;;;4984891;28;20026;-67
2022/12/12 17:49:58;;;;;;;28.23;13.98;;;0.60;58.90;;;;;;5003668;28;20109;-67
2022/12/12 17:52:24;;;;;;;25.83;13.20;;;0.60;59.50;;;;;;4985717;28;20114;-67
2022/12/12 17:54:50;;;;;;;25.73;13.55;;;0.60;59.10;;;;;;5002161;28;20042;-67
2022/12/12 17:57:17;;;;;;;24.52;13.20;;;0.50;59.10;;;;;;5004044;28;20072;-67
2022/12/12 17:59:43;;;;;;;27.35;13.57;;;0.50;59.10;;;;;;5000526;28;20024;-66
2022/12/12 18:02:10;;;;;;;22.27;12.20;;;0.50;59.10;;;;;;5001408;28;20027;-67
2022/12/12 18:04:37;;;;;;;24.65;12.90;;;0.40;59.10;;;;;;5002804;28;20045;-67
2022/12/12 18:07:07;;;;;;;38.60;12.85;;;0.40;59.20;;;;;;4986443;28;20026;-67
2022/12/12 18:09:34;;;;;;;24.10;13.50;;;0.40;59.30;;;;;;5004160;28;20470;-67
2022/12/12 18:12:01;;;;;;;27.63;12.90;;;0.40;59.40;;;;;;5003245;28;20104;-68
2022/12/12 18:14:27;;;;;;;23.45;12.70;;;0.40;59.40;;;;;;5001208;28;20018;-67
2022/12/12 18:16:53;;;;;;;27.10;14.00;;;0.40;59.50;;;;;;5002601;28;20486;-68
2022/12/12 18:19:22;;;;;;;24.20;13.65;;;0.40;59.50;;;;;;5002690;28;20054;-68
2022/12/12 18:21:48;;;;;;;27.27;14.50;;;0.30;59.50;;;;;;5001028;28;20023;-68
2022/12/12 18:24:15;;;;;;;27.50;13.85;;;0.30;59.60;;;;;;5002223;28;20033;-68
2022/12/12 18:26:41;;;;;;;28.38;13.73;;;0.30;59.60;;;;;;5005107;28;20027;-68
2022/12/12 18:29:10;;;;;;;27.50;14.10;;;0.30;59.70;;;;;;4984866;28;20079;-68
2022/12/12 18:31:36;;;;;;;33.17;15.82;;;0.30;59.80;;;;;;5001506;28;20018;-68
2022/12/12 18:34:03;;;;;;;29.00;15.50;;;0.20;59.90;;;;;;5000498;28;20109;-68
2022/12/12 18:36:30;;;;;;;27.63;13.18;;;0.20;60.10;;;;;;5002704;28;20014;-68
2022/12/12 18:38:59;;;;;;;26.80;14.25;;;0.20;60.10;;;;;;5002148;28;20486;-68
2022/12/12 18:41:26;;;;;;;28.20;13.75;;;0.20;60.00;;;;;;4984730;28;20365;-67
2022/12/12 18:43:53;;;;;;;25.95;14.48;;;0.20;60.00;;;;;;5002125;28;20017;-67
2022/12/12 18:46:20;;;;;;;27.25;13.30;;;0.20;60.00;;;;;;5001118;28;20184;-68
2022/12/12 18:48:47;;;;;;;37.15;17.35;;;0.10;60.00;;;;;;4984855;28;20111;-67
2022/12/12 18:51:19;;;;;;;38.70;18.13;;;0.10;60.10;;;;;;5000678;28;20030;-68
2022/12/12 18:53:46;;;;;;;33.38;16.52;;;0.10;60.20;;;;;;5001425;28;20010;-68
2022/12/12 18:56:19;;;;;;;36.58;18.10;;;0.10;60.30;;;;;;4996045;28;20034;-68
2022/12/12 18:58:45;;;;;;;32.72;17.63;;;0.10;60.50;;;;;;5002531;28;20101;-68
2022/12/12 19:01:13;;;;;;;40.28;18.55;;;0.10;60.60;;;;;;5000854;28;20495;-67
2022/12/12 19:03:42;;;;;;;27.15;15.13;;;0.00;60.50;;;;;;5001989;28;20033;-68
2022/12/12 19:06:12;;;;;;;28.20;14.75;;;0.00;60.50;;;;;;5002361;28;20017;-67
2022/12/12 19:08:38;;;;;;;28.65;14.68;;;0.00;60.30;;;;;;5000989;28;20406;-67
2022/12/12 19:11:05;;;;;;;26.45;13.27;;;0.00;60.10;;;;;;5001774;28;20091;-67
2022/12/12 19:13:32;;;;;;;28.27;14.93;;;0.00;60.00;;;;;;5002723;28;20117;-68
2022/12/12 19:16:06;;;;;;;27.20;13.80;;;0.00;59.90;;;;;;5001996;28;20022;-67
2022/12/12 19:18:32;;;;;;;26.55;12.75;;;0.00;60.00;;;;;;5000579;28;20046;-68
2022/12/12 19:21:17;;;;;;;29.95;13.05;;;-0.10;59.90;;;;;;5002161;28;20029;-68
2022/12/12 19:23:44;;;;;;;28.33;13.23;;;-0.10;59.80;;;;;;4986893;28;20044;-68
2022/12/12 19:26:16;;;;;;;22.48;12.05;;;-0.10;59.80;;;;;;5003884;28;20030;-68
2022/12/12 19:28:43;;;;;;;25.27;12.32;;;-0.10;59.80;;;;;;5005190;28;20030;-68
2022/12/12 19:31:15;;;;;;;27.17;12.65;;;-0.10;59.80;;;;;;5004440;28;20033;-68
2022/12/12 19:33:42;;;;;;;22.20;11.70;;;-0.10;59.80;;;;;;5005094;28;20019;-68
2022/12/12 19:36:11;;;;;;;25.10;13.18;;;-0.20;59.70;;;;;;5004463;28;20041;-68
2022/12/12 19:38:38;;;;;;;31.52;13.27;;;-0.20;59.70;;;;;;5004413;28;20553;-67
2022/12/12 19:41:05;;;;;;;26.80;14.80;;;-0.20;59.70;;;;;;4986519;28;20034;-67
2022/12/12 19:43:31;;;;;;;29.95;14.55;;;-0.20;59.90;;;;;;4986513;28;20050;-67
2022/12/12 19:46:05;;;;;;;33.83;15.23;;;-0.30;60.00;;;;;;5004213;28;20033;-68
2022/12/12 19:48:32;;;;;;;31.70;14.10;;;-0.30;60.20;;;;;;5005540;28;20041;-67
2022/12/12 19:51:14;;;;;;;28.17;14.85;;;-0.30;60.10;;;;;;5006311;28;20430;-67
2022/12/12 19:53:45;;;;;;;29.25;13.82;;;-0.30;60.10;;;;;;4989182;28;20379;-68
2022/12/12 19:56:13;;;;;;;28.65;12.57;;;-0.30;60.00;;;;;;4986458;28;20022;-68
2022/12/12 19:58:40;;;;;;;27.33;13.13;;;-0.40;60.00;;;;;;5005594;28;20041;-67
2022/12/12 20:01:12;;;;;;;22.05;11.82;;;-0.40;60.00;;;;;;5005215;28;20022;-67
2022/12/12 20:03:39;;;;;;;34.95;15.15;;;-0.40;60.10;;;;;;5003955;28;20109;-67
2022/12/12 20:06:08;;;;;;;36.13;17.38;;;-0.40;60.10;;;;;;5007415;28;20025;-67
2022/12/12 20:08:35;;;;;;;33.75;16.65;;;-0.50;60.10;;;;;;5006276;28;20018;-67
2022/12/12 20:11:09;;;;;;;34.55;14.98;;;-0.50;60.10;;;;;;5005220;28;20062;-68
2022/12/12 20:13:36;;;;;;;27.55;13.90;;;-0.50;60.20;;;;;;4994850;28;20389;-68
2022/12/12 20:16:14;;;;;;;31.83;14.77;;;-0.50;60.30;;;;;;5005460;28;20024;-68
2022/12/12 20:18:41;;;;;;;36.20;16.15;;;-0.60;60.30;;;;;;5003187;28;20076;-67
2022/12/12 20:21:09;;;;;;;32.13;14.70;;;-0.60;60.40;;;;;;5006171;28;20076;-68
2022/12/12 20:23:40;;;;;;;32.83;15.27;;;-0.60;60.40;;;;;;5005572;28;20022;-68
2022/12/12 20:26:10;;;;;;;31.80;14.82;;;-0.70;60.40;;;;;;5007423;28;20052;-68
2022/12/12 20:28:37;;;;;;;36.95;14.93;;;-0.70;60.50;;;;;;5008469;28;20022;-70
2022/12/12 20:31:11;;;;;;;33.85;15.15;;;-0.70;60.70;;;;;;5007163;28;20029;-69
2022/12/12 20:33:38;;;;;;;25.83;13.68;;;-0.70;60.70;;;;;;5003488;28;20018;-67
2022/12/12 20:36:10;;;;;;;25.88;13.52;;;-0.70;60.60;;;;;;5006369;28;20052;-68
2022/12/12 20:38:37;;;;;;;27.40;13.45;;;-0.70;60.70;;;;;;4988034;28;20485;-67
2022/12/12 20:41:15;;;;;;;32.00;14.60;;;-0.70;60.60;;;;;;5003878;28;20026;-68
2022/12/12 20:43:42;;;;;;;29.67;12.95;;;-0.80;60.60;;;;;;5002562;28;20058;-68
2022/12/12 20:46:13;;;;;;;26.42;13.85;;;-0.80;60.70;;;;;;4987117;28;20109;-68
2022/12/12 20:48:40;;;;;;;41.30;18.38;;;-0.80;60.80;;;;;;5003779;28;20022;-68
2022/12/12 20:51:10;;;;;;;46.15;21.05;;;-0.80;60.90;;;;;;5008235;28;20026;-68
2022/12/12 20:53:40;;;;;;;42.97;18.80;;;-0.80;61.20;;;;;;5002967;28;20014;-68
2022/12/12 20:56:10;;;;;;;42.55;19.83;;;-0.80;61.30;;;;;;5004673;28;20014;-68
2022/12/12 20:58:37;;;;;;;37.78;19.10;;;-0.80;61.20;;;;;;5003069;28;20025;-67
2022/12/12 21:01:11;;;;;;;44.88;19.48;;;-0.80;61.10;;;;;;5002941;28;20022;-68
2022/12/12 21:03:38;;;;;;;46.10;20.58;;;-0.90;61.00;;;;;;4989481;28;20029;-68
2022/12/12 21:06:16;;;;;;;36.63;16.45;;;-0.90;61.10;;;;;;5004714;28;20105;-67
2022/12/12 21:08:45;;;;;;;30.27;15.10;;;-0.90;61.20;;;;;;5005850;28;20018;-67
2022/12/12 21:11:13;;;;;;;35.03;15.82;;;-0.90;61.10;;;;;;5005794;28;20018;-68
2022/12/12 21:13:39;;;;;;;34.03;16.63;;;-0.90;61.20;;;;;;5004311;28;20017;-68
2022/12/12 21:16:18;;;;;;;38.03;17.30;;;-1.00;61.30;;;;;;5005679;28;20042;-67
2022/12/12 21:18:46;;;;;;;35.65;16.55;;;-1.00;61.40;;;;;;5006167;28;20135;-68
2022/12/12 21:21:12;;;;;;;40.25;19.63;;;-1.00;61.40;;;;;;5008157;28;20025;-68
2022/12/12 21:23:39;;;;;;;37.08;17.60;;;-1.00;61.50;;;;;;4987101;28;20051;-68
2022/12/12 21:26:07;;;;;;;40.13;17.42;;;-1.00;61.50;;;;;;5004067;28;20483;-66
2022/12/12 21:28:34;;;;;;;38.38;17.00;;;-1.10;61.40;;;;;;4990564;28;20030;-66
2022/12/12 21:31:00;;;;;;;28.90;14.52;;;-1.10;61.40;;;;;;5012502;28;20084;-66
2022/12/12 21:33:27;;;;;;;27.92;14.05;;;-1.10;61.30;;;;;;5012892;28;20072;-69
2022/12/12 21:35:53;;;;;;;32.88;14.80;;;-1.10;61.20;;;;;;5007201;28;20056;-66
2022/12/12 21:38:19;;;;;;;30.98;15.00;;;-1.10;61.10;;;;;;5012883;28;20021;-66
2022/12/12 21:40:46;;;;;;;27.65;13.77;;;-1.10;61.20;;;;;;5012622;28;20361;-67
2022/12/12 21:43:12;;;;;;;29.73;14.15;;;-1.20;61.10;;;;;;5009074;28;20517;-66
2022/12/12 21:45:38;;;;;;;31.23;14.98;;;-1.20;61.20;;;;;;5004678;28;20053;-63
